Time;durP1;ratioP1;P1;durP2;ratioP2;P2;SDS_P1;SDS_P2;PMS_P1;PMS_P2;Temp;Humidity;BMP_temperature;BMP_pressure;BME280_temperature;BME280_humidity;BME280_pressure;Samples;Min_cycle;Max_cycle;Signal;HPM_P1;HPM_P2
2023/11/11 00:00:48;;;;;;;1.65;1.55;;;6.70;99.90;;;;;;480717;247;28417;-73
2023/11/11 00:02:49;;;;;;;1.50;1.40;;;6.60;99.90;;;;;;480804;247;27521;-73
2023/11/11 00:04:50;;;;;;;1.40;1.30;;;6.60;99.90;;;;;;480813;247;27686;-74
2023/11/11 00:06:51;;;;;;;1.50;1.40;;;6.50;99.90;;;;;;480791;247;27875;-73
2023/11/11 00:08:52;;;;;;;0.95;0.95;;;6.40;99.90;;;;;;480723;247;27922;-74
2023/11/11 00:10:54;;;;;;;2.55;1.12;;;6.20;99.90;;;;;;480730;247;27391;-73
2023/11/11 00:12:55;;;;;;;1.08;1.08;;;6.10;99.90;;;;;;480683;247;27497;-73
2023/11/11 00:14:57;;;;;;;0.80;0.80;;;6.10;99.90;;;;;;480667;247;27446;-74
2023/11/11 00:16:58;;;;;;;1.02;0.90;;;6.00;99.90;;;;;;480743;247;27400;-73
2023/11/11 00:18:59;;;;;;;0.98;0.80;;;6.00;99.90;;;;;;480776;247;27547;-74
2023/11/11 00:21:00;;;;;;;0.90;0.90;;;5.90;99.90;;;;;;480766;247;28030;-73
2023/11/11 00:23:02;;;;;;;1.00;0.90;;;5.90;99.90;;;;;;480734;247;27870;-73
2023/11/11 00:25:03;;;;;;;1.87;1.00;;;5.80;99.90;;;;;;480686;247;27530;-74
2023/11/11 00:27:04;;;;;;;0.90;0.90;;;5.80;99.90;;;;;;480796;247;27453;-73
2023/11/11 00:29:05;;;;;;;0.80;0.80;;;5.80;99.90;;;;;;480772;247;27439;-74
2023/11/11 00:31:10;;;;;;;1.00;1.00;;;5.70;99.90;;;;;;480730;247;27435;-73
2023/11/11 00:33:08;;;;;;;0.90;0.90;;;5.80;99.90;;;;;;480419;247;27410;-74
2023/11/11 00:35:09;;;;;;;0.80;0.80;;;5.70;99.90;;;;;;480767;247;27989;-73
2023/11/11 00:37:10;;;;;;;0.90;0.90;;;5.70;99.90;;;;;;480775;247;28662;-73
2023/11/11 00:39:12;;;;;;;1.25;0.90;;;5.60;99.90;;;;;;480732;247;27402;-73
2023/11/11 00:41:13;;;;;;;1.25;1.00;;;5.50;99.90;;;;;;480631;247;27423;-74
2023/11/11 00:43:14;;;;;;;1.08;0.93;;;5.50;99.90;;;;;;480971;243;27509;-73
2023/11/11 00:45:15;;;;;;;0.95;0.95;;;5.50;99.90;;;;;;480972;247;27584;-72
2023/11/11 00:47:16;;;;;;;0.85;0.85;;;5.40;99.90;;;;;;481139;247;27439;-74
2023/11/11 00:49:18;;;;;;;1.60;0.90;;;5.40;99.90;;;;;;481139;247;27505;-72
2023/11/11 00:51:19;;;;;;;2.03;1.20;;;5.40;99.90;;;;;;481151;247;27819;-72
2023/11/11 00:53:20;;;;;;;1.00;1.00;;;5.30;99.90;;;;;;481143;247;27942;-72
2023/11/11 00:55:22;;;;;;;0.90;0.90;;;5.30;99.90;;;;;;481196;247;27916;-72
2023/11/11 00:57:23;;;;;;;0.90;0.90;;;5.30;99.90;;;;;;481206;247;27524;-74
2023/11/11 00:59:24;;;;;;;0.80;0.80;;;5.30;99.90;;;;;;481213;247;27398;-72
2023/11/11 01:01:25;;;;;;;0.90;0.90;;;5.30;99.90;;;;;;481206;247;27437;-72
2023/11/11 01:03:26;;;;;;;1.23;0.90;;;5.30;99.90;;;;;;481140;247;27398;-73
2023/11/11 01:05:28;;;;;;;0.80;0.80;;;5.30;99.90;;;;;;481225;247;27444;-72
2023/11/11 01:07:29;;;;;;;0.90;0.90;;;5.30;99.90;;;;;;481200;247;27433;-73
2023/11/11 01:09:30;;;;;;;1.23;0.98;;;5.30;99.90;;;;;;481129;247;27938;-72
2023/11/11 01:11:32;;;;;;;1.15;0.90;;;5.30;99.90;;;;;;481187;247;28047;-73
2023/11/11 01:13:33;;;;;;;0.80;0.80;;;5.30;99.90;;;;;;481191;247;27797;-72
2023/11/11 01:15:34;;;;;;;0.88;0.88;;;5.30;99.90;;;;;;481135;242;27488;-72
2023/11/11 01:17:35;;;;;;;0.80;0.80;;;5.30;99.90;;;;;;481138;247;27434;-73
2023/11/11 01:19:36;;;;;;;1.17;1.08;;;5.40;99.90;;;;;;481148;247;27415;-72
2023/11/11 01:21:38;;;;;;;1.00;1.00;;;5.30;99.90;;;;;;481134;247;27797;-71
2023/11/11 01:23:41;;;;;;;1.20;1.10;;;5.30;99.90;;;;;;481233;247;27776;-74
2023/11/11 01:25:40;;;;;;;1.58;0.90;;;5.30;99.90;;;;;;481023;247;27481;-72
2023/11/11 01:27:41;;;;;;;1.00;1.00;;;5.30;99.90;;;;;;481205;247;27878;-73
2023/11/11 01:29:43;;;;;;;1.00;1.00;;;5.30;99.90;;;;;;481140;247;27901;-73
2023/11/11 01:31:44;;;;;;;1.40;0.90;;;5.30;99.90;;;;;;481133;247;27426;-72
2023/11/11 01:33:45;;;;;;;0.95;0.90;;;5.30;99.90;;;;;;481123;247;27441;-73
2023/11/11 01:35:48;;;;;;;1.00;1.00;;;5.30;99.90;;;;;;481145;247;27496;-73
2023/11/11 01:37:48;;;;;;;1.98;1.08;;;5.20;99.90;;;;;;480996;247;27430;-73
2023/11/11 01:39:49;;;;;;;1.00;0.90;;;5.30;99.90;;;;;;481147;247;27409;-72
2023/11/11 01:41:50;;;;;;;0.80;0.80;;;5.30;99.90;;;;;;481211;247;27407;-73
2023/11/11 01:43:52;;;;;;;1.35;0.85;;;5.30;99.90;;;;;;481223;247;28017;-73
2023/11/11 01:45:53;;;;;;;1.35;0.90;;;5.30;99.90;;;;;;481202;247;27917;-72
2023/11/11 01:47:54;;;;;;;1.80;0.82;;;5.30;99.90;;;;;;481199;247;27991;-73
2023/11/11 01:49:55;;;;;;;0.85;0.85;;;5.20;99.90;;;;;;481206;247;27525;-73
2023/11/11 01:51:57;;;;;;;0.80;0.80;;;5.30;99.90;;;;;;481106;247;27394;-73
2023/11/11 01:53:58;;;;;;;1.40;1.00;;;5.30;99.90;;;;;;481146;247;27427;-73
2023/11/11 01:55:59;;;;;;;1.98;1.10;;;5.30;99.90;;;;;;481127;247;27397;-72
2023/11/11 01:58:00;;;;;;;0.90;0.90;;;5.30;99.90;;;;;;481123;247;27490;-73
2023/11/11 02:00:06;;;;;;;0.90;0.90;;;5.30;99.90;;;;;;481211;247;27493;-72
2023/11/11 02:02:03;;;;;;;0.90;0.90;;;5.30;99.90;;;;;;480690;247;28151;-73
2023/11/11 02:04:04;;;;;;;2.90;1.00;;;5.40;99.90;;;;;;481102;247;27921;-73
2023/11/11 02:06:05;;;;;;;0.98;0.98;;;5.40;99.90;;;;;;481236;247;27398;-72
2023/11/11 02:08:07;;;;;;;1.10;1.00;;;5.40;99.90;;;;;;481089;247;27411;-73
2023/11/11 02:10:08;;;;;;;1.10;1.10;;;5.40;99.90;;;;;;481225;247;27453;-74
2023/11/11 02:12:09;;;;;;;1.37;1.30;;;5.40;99.90;;;;;;481129;247;27402;-74
2023/11/11 02:14:10;;;;;;;1.42;1.35;;;5.40;99.90;;;;;;481195;246;27425;-73
2023/11/11 02:16:12;;;;;;;1.50;1.40;;;5.50;99.90;;;;;;481260;247;27430;-74
2023/11/11 02:18:13;;;;;;;2.00;1.90;;;5.50;99.90;;;;;;481266;247;27966;-73
2023/11/11 02:20:14;;;;;;;2.10;1.90;;;5.50;99.90;;;;;;481225;247;27912;-73
2023/11/11 02:22:16;;;;;;;1.90;1.80;;;5.50;99.90;;;;;;481233;247;27403;-72
2023/11/11 02:24:17;;;;;;;2.00;1.90;;;5.60;99.90;;;;;;481096;247;27433;-73
2023/11/11 02:26:18;;;;;;;3.67;2.00;;;5.60;99.90;;;;;;481172;247;27438;-74
2023/11/11 02:28:19;;;;;;;2.17;2.00;;;5.70;99.90;;;;;;481259;247;27506;-73
2023/11/11 02:30:21;;;;;;;6.28;2.40;;;5.70;99.90;;;;;;481254;247;27507;-73
2023/11/11 02:32:22;;;;;;;2.30;2.10;;;5.70;99.90;;;;;;481268;247;27489;-73
2023/11/11 02:34:23;;;;;;;6.57;2.53;;;5.70;99.90;;;;;;481245;247;27916;-73
2023/11/11 02:36:24;;;;;;;2.53;2.25;;;5.70;99.90;;;;;;481164;247;27963;-73
2023/11/11 02:38:25;;;;;;;2.65;2.20;;;5.80;99.90;;;;;;481170;247;27501;-73
2023/11/11 02:40:27;;;;;;;2.72;2.45;;;5.70;99.90;;;;;;481166;247;27433;-73
2023/11/11 02:42:28;;;;;;;3.20;2.47;;;5.80;99.90;;;;;;481170;247;27415;-72
2023/11/11 02:44:29;;;;;;;2.20;2.00;;;5.80;99.90;;;;;;481176;247;27406;-73
2023/11/11 02:46:31;;;;;;;3.33;2.42;;;5.80;99.90;;;;;;481190;247;27483;-73
2023/11/11 02:48:32;;;;;;;2.55;2.35;;;5.90;99.90;;;;;;481177;247;27866;-73
2023/11/11 02:50:33;;;;;;;3.28;2.35;;;5.90;99.90;;;;;;481136;247;27985;-73
2023/11/11 02:52:34;;;;;;;2.60;2.40;;;5.80;99.90;;;;;;481279;247;27447;-73
2023/11/11 02:54:36;;;;;;;3.85;2.37;;;5.80;99.90;;;;;;481220;247;27398;-73
2023/11/11 02:56:37;;;;;;;3.42;2.05;;;5.90;99.90;;;;;;481260;247;27433;-74
2023/11/11 02:58:38;;;;;;;4.15;2.45;;;5.90;99.90;;;;;;481214;244;27389;-73
2023/11/11 03:00:40;;;;;;;3.50;2.45;;;5.90;99.90;;;;;;481263;247;27501;-73
2023/11/11 03:02:41;;;;;;;2.33;2.10;;;5.90;99.90;;;;;;481174;247;27438;-74
2023/11/11 03:04:43;;;;;;;3.03;2.30;;;5.90;99.90;;;;;;481162;247;27942;-73
2023/11/11 03:06:43;;;;;;;4.68;2.72;;;5.90;99.90;;;;;;481080;247;27884;-73
2023/11/11 03:08:44;;;;;;;2.00;1.80;;;5.90;99.90;;;;;;481190;246;27536;-72
2023/11/11 03:10:46;;;;;;;2.30;2.10;;;5.90;99.90;;;;;;481187;247;27386;-73
2023/11/11 03:12:47;;;;;;;2.22;2.12;;;5.90;99.90;;;;;;481188;247;27547;-73
2023/11/11 03:14:48;;;;;;;2.30;2.20;;;5.90;99.90;;;;;;481188;247;27478;-73
2023/11/11 03:16:49;;;;;;;2.45;2.25;;;5.90;99.90;;;;;;481196;247;27445;-73
2023/11/11 03:18:51;;;;;;;3.25;2.25;;;5.90;99.90;;;;;;481207;247;27906;-75
2023/11/11 03:20:52;;;;;;;3.33;2.25;;;5.90;99.90;;;;;;481258;247;27853;-73
2023/11/11 03:22:54;;;;;;;2.20;2.05;;;5.90;99.90;;;;;;481240;247;27519;-73
2023/11/11 03:24:54;;;;;;;3.37;2.10;;;5.90;99.90;;;;;;481257;247;27400;-73
2023/11/11 03:26:56;;;;;;;4.62;2.42;;;5.90;99.90;;;;;;481258;247;27485;-73
2023/11/11 03:28:57;;;;;;;3.20;1.70;;;5.90;99.90;;;;;;481281;247;27429;-73
2023/11/11 03:30:58;;;;;;;2.30;2.10;;;5.90;99.90;;;;;;481277;247;27501;-73
2023/11/11 03:32:59;;;;;;;2.22;2.03;;;6.00;99.90;;;;;;481233;247;27453;-73
2023/11/11 03:35:01;;;;;;;2.60;1.83;;;5.90;99.90;;;;;;481250;247;27995;-73
2023/11/11 03:37:02;;;;;;;2.15;2.00;;;5.90;99.90;;;;;;481280;247;27477;-73
2023/11/11 03:39:03;;;;;;;2.70;2.50;;;5.90;99.90;;;;;;481170;247;27463;-73
2023/11/11 03:41:05;;;;;;;2.20;2.00;;;5.90;99.90;;;;;;481172;247;27458;-73
2023/11/11 03:43:06;;;;;;;7.87;2.55;;;6.00;99.90;;;;;;481157;247;27445;-73
2023/11/11 03:45:09;;;;;;;2.25;2.10;;;5.90;99.90;;;;;;481263;247;27764;-74
2023/11/11 03:47:08;;;;;;;3.30;2.10;;;6.00;99.90;;;;;;480963;247;27386;-73
2023/11/11 03:49:09;;;;;;;4.03;2.20;;;6.00;99.90;;;;;;481205;247;27917;-73
2023/11/11 03:51:11;;;;;;;3.42;2.62;;;6.00;99.90;;;;;;481201;247;27858;-73
2023/11/11 03:53:12;;;;;;;4.57;2.20;;;6.00;99.90;;;;;;481240;247;27402;-73
2023/11/11 03:55:13;;;;;;;6.30;2.40;;;6.00;99.90;;;;;;481152;247;27456;-73
2023/11/11 03:57:15;;;;;;;2.45;2.25;;;6.00;99.90;;;;;;481199;247;27468;-73
2023/11/11 03:59:16;;;;;;;7.25;3.10;;;6.00;99.90;;;;;;481082;247;27429;-72
2023/11/11 04:01:17;;;;;;;4.95;3.12;;;6.00;99.90;;;;;;481179;247;27432;-73
2023/11/11 04:03:18;;;;;;;3.42;2.40;;;6.00;99.90;;;;;;481224;241;27868;-73
2023/11/11 04:05:20;;;;;;;6.03;2.90;;;6.00;99.90;;;;;;481291;247;28012;-73
2023/11/11 04:07:21;;;;;;;3.40;2.40;;;6.00;99.90;;;;;;481148;247;27393;-74
2023/11/11 04:09:22;;;;;;;2.87;2.50;;;6.00;99.90;;;;;;481175;247;27413;-73
2023/11/11 04:11:23;;;;;;;3.10;2.80;;;6.00;99.90;;;;;;481234;247;27545;-74
2023/11/11 04:13:25;;;;;;;3.97;2.90;;;6.00;99.90;;;;;;481263;247;27403;-73
2023/11/11 04:15:26;;;;;;;4.72;2.50;;;6.00;99.90;;;;;;481174;247;27449;-74
2023/11/11 04:17:28;;;;;;;3.00;2.80;;;6.00;99.90;;;;;;481162;247;27901;-73
2023/11/11 04:19:28;;;;;;;3.70;2.92;;;6.00;99.90;;;;;;481147;247;27944;-73
2023/11/11 04:21:30;;;;;;;6.45;3.03;;;6.10;99.90;;;;;;481148;247;27504;-74
2023/11/11 04:23:31;;;;;;;2.37;2.28;;;6.10;99.90;;;;;;481143;246;27394;-73
2023/11/11 04:25:32;;;;;;;3.90;3.50;;;6.10;99.90;;;;;;481154;247;27533;-73
2023/11/11 04:27:33;;;;;;;4.47;3.20;;;6.10;99.90;;;;;;481238;247;27449;-74
2023/11/11 04:29:35;;;;;;;3.87;3.10;;;6.10;99.90;;;;;;481259;247;27414;-73
2023/11/11 04:31:36;;;;;;;7.10;3.40;;;6.00;99.90;;;;;;481205;247;27925;-73
2023/11/11 04:33:37;;;;;;;4.20;3.00;;;6.00;99.90;;;;;;481227;247;27865;-73
2023/11/11 04:35:38;;;;;;;3.53;3.17;;;6.00;99.90;;;;;;481109;247;27452;-72
2023/11/11 04:37:40;;;;;;;4.22;2.62;;;6.00;99.90;;;;;;481239;247;27434;-75
2023/11/11 04:39:45;;;;;;;2.97;2.72;;;6.00;99.90;;;;;;481261;247;27410;-73
2023/11/11 04:41:43;;;;;;;3.62;2.90;;;6.00;99.90;;;;;;480917;247;27434;-73
2023/11/11 04:43:43;;;;;;;3.95;3.42;;;6.00;99.90;;;;;;481234;247;27422;-73
2023/11/11 04:45:45;;;;;;;3.83;2.90;;;6.00;99.90;;;;;;481045;247;27851;-74
2023/11/11 04:47:46;;;;;;;3.72;3.40;;;6.00;99.90;;;;;;481131;247;28000;-73
2023/11/11 04:49:48;;;;;;;3.80;3.37;;;6.00;99.90;;;;;;481147;247;27398;-73
2023/11/11 04:51:48;;;;;;;3.30;3.00;;;6.00;99.90;;;;;;481137;247;27513;-73
2023/11/11 04:53:50;;;;;;;4.43;3.85;;;6.00;99.90;;;;;;481136;247;27465;-74
2023/11/11 04:55:52;;;;;;;7.47;5.12;;;6.00;99.90;;;;;;481165;247;27487;-72
2023/11/11 04:57:52;;;;;;;5.82;3.47;;;6.00;99.90;;;;;;481183;247;27432;-74
2023/11/11 04:59:54;;;;;;;4.93;3.78;;;6.00;99.90;;;;;;481219;247;27434;-73
2023/11/11 05:01:55;;;;;;;7.20;4.30;;;6.10;99.90;;;;;;481227;247;28001;-73
2023/11/11 05:03:57;;;;;;;4.55;3.65;;;6.10;99.90;;;;;;481243;247;27919;-74
2023/11/11 05:05:57;;;;;;;4.90;4.50;;;6.10;99.90;;;;;;481201;247;27394;-73
2023/11/11 05:07:59;;;;;;;10.95;6.82;;;6.10;99.90;;;;;;481150;247;27524;-73
2023/11/11 05:10:00;;;;;;;8.90;7.25;;;6.10;99.90;;;;;;481163;247;27394;-73
2023/11/11 05:12:02;;;;;;;5.95;5.35;;;6.10;99.90;;;;;;481157;247;27457;-73
2023/11/11 05:14:06;;;;;;;6.90;3.70;;;6.10;99.90;;;;;;481127;247;27435;-74
2023/11/11 05:16:13;;;;;;;7.30;5.60;;;6.00;99.90;;;;;;480840;247;27861;-73
2023/11/11 05:18:05;;;;;;;5.82;4.90;;;6.10;99.90;;;;;;480091;247;27902;-72
2023/11/11 05:20:08;;;;;;;11.23;7.60;;;6.10;99.90;;;;;;481117;247;27451;-73
2023/11/11 05:22:07;;;;;;;4.87;4.05;;;6.10;99.90;;;;;;480906;247;27402;-73
2023/11/11 05:24:10;;;;;;;4.50;3.83;;;6.10;99.90;;;;;;481064;247;27469;-73
2023/11/11 05:26:10;;;;;;;7.57;3.90;;;6.00;99.90;;;;;;480957;247;27392;-74
2023/11/11 05:28:11;;;;;;;9.90;3.90;;;6.00;99.90;;;;;;481076;247;27545;-73
2023/11/11 05:30:12;;;;;;;3.80;3.50;;;6.00;99.90;;;;;;481133;247;27960;-74
2023/11/11 05:32:14;;;;;;;4.25;3.65;;;6.00;99.90;;;;;;481168;247;27927;-73
2023/11/11 05:34:15;;;;;;;6.15;4.40;;;6.00;99.90;;;;;;481184;247;27430;-73
2023/11/11 05:36:16;;;;;;;5.30;3.95;;;6.00;99.90;;;;;;481083;247;27472;-73
2023/11/11 05:38:17;;;;;;;4.87;3.80;;;6.00;99.90;;;;;;481130;247;27522;-72
2023/11/11 05:40:19;;;;;;;9.10;4.75;;;5.90;99.90;;;;;;481166;247;27449;-73
2023/11/11 05:42:20;;;;;;;4.22;3.60;;;5.90;99.90;;;;;;481152;247;27448;-73
2023/11/11 05:44:21;;;;;;;4.10;3.70;;;5.90;99.90;;;;;;481179;247;27906;-73
2023/11/11 05:46:24;;;;;;;4.30;3.45;;;5.90;99.90;;;;;;481159;247;28023;-73
2023/11/11 05:48:24;;;;;;;4.00;3.45;;;5.90;99.90;;;;;;481082;247;27426;-73
2023/11/11 05:50:25;;;;;;;3.90;3.62;;;6.00;99.90;;;;;;481259;247;27473;-73
2023/11/11 05:52:26;;;;;;;4.37;3.50;;;5.90;99.90;;;;;;481170;247;27446;-72
2023/11/11 05:54:27;;;;;;;6.70;4.22;;;5.90;99.90;;;;;;481197;247;27517;-73
2023/11/11 05:56:29;;;;;;;4.22;3.65;;;5.90;99.90;;;;;;481185;247;27433;-75
2023/11/11 05:58:30;;;;;;;7.78;4.47;;;5.90;99.90;;;;;;481173;247;27934;-73
2023/11/11 06:00:31;;;;;;;7.78;4.28;;;5.90;99.90;;;;;;481174;247;28023;-74
2023/11/11 06:02:32;;;;;;;5.45;4.25;;;5.90;99.90;;;;;;481221;247;27387;-73
2023/11/11 06:04:34;;;;;;;6.55;4.20;;;5.90;99.90;;;;;;481171;247;27447;-73
2023/11/11 06:06:35;;;;;;;4.60;4.20;;;5.80;99.90;;;;;;481193;247;27539;-73
2023/11/11 06:08:36;;;;;;;7.95;4.82;;;5.80;99.90;;;;;;481179;247;27494;-73
2023/11/11 06:10:38;;;;;;;5.30;3.78;;;5.80;99.90;;;;;;481169;244;27497;-73
2023/11/11 06:12:39;;;;;;;5.97;4.65;;;5.80;99.90;;;;;;481136;247;27499;-72
2023/11/11 06:14:40;;;;;;;7.78;4.55;;;5.80;99.90;;;;;;481184;247;27858;-73
2023/11/11 06:16:41;;;;;;;5.05;4.55;;;5.80;99.90;;;;;;481153;247;27918;-73
2023/11/11 06:18:43;;;;;;;7.30;5.20;;;5.80;99.90;;;;;;481161;247;27396;-73
2023/11/11 06:20:44;;;;;;;7.70;4.65;;;5.80;99.90;;;;;;481162;247;27509;-73
2023/11/11 06:22:46;;;;;;;5.20;4.70;;;5.80;99.90;;;;;;481167;247;27489;-75
2023/11/11 06:24:46;;;;;;;5.30;4.70;;;5.80;99.90;;;;;;481173;247;27415;-73
2023/11/11 06:26:48;;;;;;;8.95;5.00;;;5.80;99.90;;;;;;481149;247;27522;-73
2023/11/11 06:28:51;;;;;;;5.25;4.32;;;5.80;99.90;;;;;;481151;247;27926;-73
2023/11/11 06:30:50;;;;;;;5.45;4.57;;;5.80;99.90;;;;;;481070;247;27849;-74
2023/11/11 06:32:52;;;;;;;5.57;4.45;;;5.80;99.90;;;;;;475261;240;27555;-73
2023/11/11 06:34:53;;;;;;;4.87;4.00;;;5.80;99.90;;;;;;486869;244;27458;-73
2023/11/11 06:36:54;;;;;;;5.30;4.20;;;5.80;99.90;;;;;;478753;248;27435;-73
2023/11/11 06:38:55;;;;;;;11.48;4.50;;;5.80;99.90;;;;;;478774;248;27430;-74
2023/11/11 06:40:56;;;;;;;6.93;4.65;;;5.80;99.90;;;;;;478759;244;27401;-73
2023/11/11 06:42:58;;;;;;;8.15;4.30;;;5.80;99.90;;;;;;478746;248;27999;-74
2023/11/11 06:44:59;;;;;;;7.03;4.55;;;5.70;99.90;;;;;;478757;248;27858;-73
2023/11/11 06:47:00;;;;;;;7.03;4.43;;;5.70;99.90;;;;;;478736;248;27440;-73
2023/11/11 06:49:01;;;;;;;6.12;3.90;;;5.60;99.90;;;;;;478778;244;27435;-74
2023/11/11 06:51:04;;;;;;;4.30;3.90;;;5.60;99.90;;;;;;478762;248;27412;-73
2023/11/11 06:53:04;;;;;;;5.70;4.03;;;5.60;99.90;;;;;;478712;248;27445;-74
2023/11/11 06:55:06;;;;;;;6.62;4.32;;;5.60;99.90;;;;;;478652;248;27423;-73
2023/11/11 06:57:06;;;;;;;8.43;4.18;;;5.60;99.90;;;;;;478642;248;27482;-73
2023/11/11 06:59:08;;;;;;;6.72;4.25;;;5.60;99.90;;;;;;478634;248;27939;-74
2023/11/11 07:01:09;;;;;;;5.57;4.70;;;5.60;99.90;;;;;;478709;248;27835;-73
2023/11/11 07:03:10;;;;;;;13.75;5.37;;;5.60;99.90;;;;;;478602;248;27547;-73
2023/11/11 07:05:11;;;;;;;5.40;4.32;;;5.60;99.90;;;;;;478631;244;27439;-73
2023/11/11 07:07:13;;;;;;;6.65;5.32;;;5.50;99.90;;;;;;478638;248;27470;-73
2023/11/11 07:09:14;;;;;;;5.70;4.65;;;5.50;99.90;;;;;;478620;244;27447;-74
2023/11/11 07:11:15;;;;;;;6.93;5.07;;;5.50;99.90;;;;;;478683;248;27401;-73
2023/11/11 07:13:17;;;;;;;5.40;4.90;;;5.50;99.90;;;;;;478617;248;27901;-73
2023/11/11 07:15:18;;;;;;;10.43;5.45;;;5.50;99.90;;;;;;478713;248;28021;-74
2023/11/11 07:17:19;;;;;;;7.80;5.43;;;5.50;99.90;;;;;;478760;248;27465;-73
2023/11/11 07:19:20;;;;;;;7.00;5.62;;;5.50;99.90;;;;;;478747;248;27522;-73
2023/11/11 07:21:22;;;;;;;7.22;5.07;;;5.50;99.90;;;;;;478738;248;27495;-74
2023/11/11 07:23:23;;;;;;;7.85;6.07;;;5.50;99.90;;;;;;478784;248;27478;-73
2023/11/11 07:25:26;;;;;;;8.52;4.82;;;5.60;99.90;;;;;;478819;248;27443;-74
2023/11/11 07:27:25;;;;;;;8.38;5.62;;;5.60;99.90;;;;;;478547;248;27397;-73
2023/11/11 07:29:28;;;;;;;9.02;6.28;;;5.60;99.90;;;;;;478641;248;27917;-74
2023/11/11 07:31:28;;;;;;;11.23;6.10;;;5.60;99.90;;;;;;478537;248;27991;-75
2023/11/11 07:33:30;;;;;;;9.93;5.18;;;5.60;99.90;;;;;;478654;248;27400;-73
2023/11/11 07:35:30;;;;;;;10.32;6.10;;;5.70;99.90;;;;;;478678;248;27523;-73
2023/11/11 07:37:32;;;;;;;7.20;5.82;;;5.70;99.90;;;;;;478671;248;27395;-73
2023/11/11 07:39:33;;;;;;;8.55;5.60;;;5.60;99.90;;;;;;478642;248;27509;-73
2023/11/11 07:41:34;;;;;;;9.02;5.72;;;5.70;99.90;;;;;;478685;248;27526;-74
2023/11/11 07:43:35;;;;;;;6.72;5.03;;;5.70;99.90;;;;;;478655;248;27944;-73
2023/11/11 07:45:37;;;;;;;6.10;5.43;;;5.70;99.90;;;;;;478679;244;27975;-74
2023/11/11 07:47:41;;;;;;;7.70;4.87;;;5.70;99.90;;;;;;478736;244;27431;-73
2023/11/11 07:49:41;;;;;;;8.25;5.75;;;5.70;99.90;;;;;;478436;248;27401;-73
2023/11/11 07:51:40;;;;;;;9.80;5.55;;;5.80;99.90;;;;;;478648;248;27550;-74
2023/11/11 07:53:43;;;;;;;7.32;6.25;;;5.80;99.90;;;;;;478768;248;27502;-73
2023/11/11 07:55:43;;;;;;;6.20;5.60;;;5.80;99.90;;;;;;478742;248;27506;-74
2023/11/11 07:57:44;;;;;;;9.50;5.07;;;5.70;99.90;;;;;;478731;248;27991;-74
2023/11/11 07:59:46;;;;;;;5.62;4.90;;;5.80;99.90;;;;;;478784;248;27919;-74
2023/11/11 08:01:47;;;;;;;7.15;5.18;;;5.80;99.90;;;;;;478701;248;27477;-74
2023/11/11 08:03:48;;;;;;;6.53;5.25;;;5.90;99.90;;;;;;478675;248;27463;-73
2023/11/11 08:05:49;;;;;;;8.00;5.55;;;5.80;99.90;;;;;;478677;248;27516;-73
2023/11/11 08:07:50;;;;;;;6.68;5.25;;;5.80;99.90;;;;;;478705;248;27515;-74
2023/11/11 08:09:52;;;;;;;8.80;5.40;;;5.70;99.90;;;;;;478690;248;27491;-73
2023/11/11 08:11:54;;;;;;;8.18;5.68;;;5.80;99.90;;;;;;478699;248;28004;-74
2023/11/11 08:13:54;;;;;;;5.57;4.75;;;5.80;99.90;;;;;;478663;248;29740;-73
2023/11/11 08:15:55;;;;;;;6.53;4.90;;;5.80;99.90;;;;;;478798;248;27423;-73
2023/11/11 08:17:57;;;;;;;5.40;4.50;;;5.80;99.90;;;;;;478788;248;27442;-75
2023/11/11 08:19:58;;;;;;;6.87;4.75;;;5.80;99.90;;;;;;478701;248;27393;-74
2023/11/11 08:21:59;;;;;;;7.00;4.65;;;5.80;99.90;;;;;;478680;248;27453;-73
2023/11/11 08:24:01;;;;;;;7.05;4.60;;;5.80;99.90;;;;;;478694;248;27515;-76
2023/11/11 08:26:02;;;;;;;4.80;4.30;;;5.80;99.90;;;;;;478715;248;27879;-74
2023/11/11 08:28:03;;;;;;;5.30;4.55;;;5.90;99.90;;;;;;478558;248;27965;-73
2023/11/11 08:30:06;;;;;;;5.30;4.80;;;5.80;99.90;;;;;;478772;248;27468;-73
2023/11/11 08:32:07;;;;;;;5.25;4.05;;;5.80;99.90;;;;;;478688;248;27514;-73
2023/11/11 08:34:07;;;;;;;6.28;4.40;;;5.80;99.90;;;;;;478659;248;27447;-73
2023/11/11 08:36:08;;;;;;;6.12;4.87;;;5.80;99.90;;;;;;478760;248;27495;-73
2023/11/11 08:38:10;;;;;;;6.95;3.95;;;5.90;99.90;;;;;;478660;248;27550;-73
2023/11/11 08:40:11;;;;;;;4.75;3.75;;;6.00;99.90;;;;;;478684;248;28641;-73
2023/11/11 08:42:14;;;;;;;4.78;4.20;;;6.00;99.90;;;;;;478645;248;27887;-74
2023/11/11 08:44:13;;;;;;;5.28;4.05;;;6.00;99.90;;;;;;478518;248;27435;-73
2023/11/11 08:46:14;;;;;;;7.50;3.78;;;6.00;99.90;;;;;;478645;248;27403;-73
2023/11/11 08:48:16;;;;;;;5.45;4.43;;;6.00;99.90;;;;;;478648;248;27562;-73
2023/11/11 08:50:19;;;;;;;7.20;4.37;;;6.00;99.90;;;;;;478669;248;27776;-75
2023/11/11 08:52:18;;;;;;;5.72;4.00;;;6.00;99.90;;;;;;478566;248;27404;-73
2023/11/11 08:54:19;;;;;;;4.32;3.92;;;6.10;99.90;;;;;;478650;248;28007;-74
2023/11/11 08:56:21;;;;;;;6.93;4.55;;;6.10;99.90;;;;;;478648;248;28012;-74
2023/11/11 08:58:24;;;;;;;4.93;4.20;;;6.10;99.90;;;;;;478653;248;27440;-74
2023/11/11 09:00:24;;;;;;;7.00;5.33;;;6.20;99.90;;;;;;478547;248;27440;-75
2023/11/11 09:02:24;;;;;;;5.53;5.03;;;6.20;99.90;;;;;;478631;248;27880;-73
2023/11/11 09:04:26;;;;;;;6.00;3.93;;;6.30;99.90;;;;;;478666;248;27529;-74
2023/11/11 09:06:27;;;;;;;5.03;4.53;;;6.40;99.90;;;;;;478667;248;28931;-73
2023/11/11 09:08:29;;;;;;;4.73;3.93;;;6.50;99.90;;;;;;478721;248;27621;-74
2023/11/11 09:10:31;;;;;;;5.07;3.30;;;6.50;99.90;;;;;;478725;248;28784;-74
2023/11/11 09:12:31;;;;;;;6.37;4.67;;;6.60;99.90;;;;;;478569;248;28122;-74
2023/11/11 09:14:33;;;;;;;4.53;3.90;;;6.60;99.90;;;;;;478647;248;28442;-74
2023/11/11 09:16:33;;;;;;;7.67;4.10;;;6.60;99.90;;;;;;478577;248;28999;-74
2023/11/11 09:18:34;;;;;;;6.97;4.37;;;6.40;99.90;;;;;;478681;248;28680;-73
2023/11/11 09:20:36;;;;;;;7.85;3.30;;;6.40;99.90;;;;;;478663;248;29355;-74
2023/11/11 09:22:37;;;;;;;3.80;3.40;;;6.40;99.90;;;;;;478659;248;27496;-72
2023/11/11 09:24:39;;;;;;;4.90;3.53;;;6.60;99.90;;;;;;478684;248;28016;-74
2023/11/11 09:26:39;;;;;;;4.23;3.83;;;6.70;99.90;;;;;;478702;244;27549;-75
2023/11/11 09:28:41;;;;;;;3.80;3.50;;;6.70;99.90;;;;;;478745;248;27931;-74
2023/11/11 09:30:42;;;;;;;5.67;3.80;;;6.70;99.90;;;;;;478750;248;27912;-74
2023/11/11 09:32:43;;;;;;;4.13;3.40;;;6.70;99.90;;;;;;478661;248;27941;-73
2023/11/11 09:34:45;;;;;;;5.10;3.20;;;6.60;99.90;;;;;;478698;248;28305;-74
2023/11/11 09:36:46;;;;;;;4.03;3.53;;;6.60;99.90;;;;;;478640;248;28392;-75
2023/11/11 09:38:48;;;;;;;4.40;3.57;;;6.50;99.90;;;;;;478659;248;27846;-74
2023/11/11 09:40:48;;;;;;;4.70;3.37;;;6.50;99.90;;;;;;478657;248;27733;-74
2023/11/11 09:42:49;;;;;;;4.20;3.10;;;6.60;99.90;;;;;;478761;248;28001;-74
2023/11/11 09:44:51;;;;;;;5.50;3.43;;;6.60;99.90;;;;;;478761;248;29095;-74
2023/11/11 09:46:52;;;;;;;5.10;3.40;;;6.60;99.90;;;;;;478658;248;28289;-76
2023/11/11 09:48:53;;;;;;;5.33;3.40;;;6.60;99.90;;;;;;478682;248;28097;-74
2023/11/11 09:50:56;;;;;;;3.63;3.27;;;6.50;99.90;;;;;;478661;248;28977;-74
2023/11/11 09:52:56;;;;;;;3.60;3.23;;;6.50;99.90;;;;;;478559;248;29812;-74
2023/11/11 09:54:57;;;;;;;4.70;3.30;;;6.50;99.90;;;;;;478649;248;28173;-73
2023/11/11 09:56:58;;;;;;;3.78;2.72;;;6.40;99.90;;;;;;478731;248;27975;-75
2023/11/11 09:58:59;;;;;;;4.53;3.37;;;6.40;99.90;;;;;;478755;248;27399;-74
2023/11/11 10:01:01;;;;;;;4.43;3.60;;;6.60;99.90;;;;;;478724;248;28002;-74
2023/11/11 10:03:02;;;;;;;3.07;2.77;;;6.60;99.90;;;;;;478662;248;29156;-75
2023/11/11 10:05:04;;;;;;;6.90;3.50;;;6.70;99.90;;;;;;478666;248;27875;-73
2023/11/11 10:07:04;;;;;;;6.07;3.20;;;6.70;99.90;;;;;;478635;244;27758;-73
2023/11/11 10:09:08;;;;;;;5.10;3.37;;;6.70;99.90;;;;;;478653;248;27963;-74
2023/11/11 10:11:09;;;;;;;4.50;3.33;;;6.70;99.90;;;;;;478553;248;28006;-74
2023/11/11 10:13:08;;;;;;;5.10;3.27;;;6.70;99.90;;;;;;478570;248;28441;-73
2023/11/11 10:15:10;;;;;;;6.03;3.63;;;6.70;99.90;;;;;;478659;248;27869;-73
2023/11/11 10:17:11;;;;;;;3.50;3.00;;;6.80;99.90;;;;;;478619;248;27902;-73
2023/11/11 10:19:12;;;;;;;3.57;3.00;;;6.90;99.90;;;;;;478650;248;27774;-74
2023/11/11 10:21:14;;;;;;;7.90;3.50;;;7.00;99.90;;;;;;478658;248;28360;-73
2023/11/11 10:23:18;;;;;;;7.00;3.13;;;7.10;99.90;;;;;;478629;248;28460;-74
2023/11/11 10:25:17;;;;;;;7.07;3.30;;;6.90;99.90;;;;;;478261;248;28325;-74
2023/11/11 10:27:17;;;;;;;5.03;3.23;;;6.80;99.90;;;;;;478575;248;28486;-73
2023/11/11 10:29:18;;;;;;;5.43;3.13;;;6.70;99.90;;;;;;478671;248;29073;-73
2023/11/11 10:31:21;;;;;;;4.60;3.27;;;6.70;99.90;;;;;;478666;248;27894;-74
2023/11/11 10:33:21;;;;;;;3.80;3.50;;;6.50;99.90;;;;;;478665;248;28289;-74
2023/11/11 10:35:22;;;;;;;6.50;3.63;;;6.50;99.90;;;;;;478739;248;27771;-74
2023/11/11 10:37:23;;;;;;;4.80;3.97;;;6.50;99.90;;;;;;478761;248;27984;-74
2023/11/11 10:39:24;;;;;;;10.70;3.33;;;6.60;99.90;;;;;;478685;248;27803;-75